Time;durP1;ratioP1;P1;durP2;ratioP2;P2;SDS_P1;SDS_P2;PMS_P1;PMS_P2;Temp;Humidity;BMP_temperature;BMP_pressure;BME280_temperature;BME280_humidity;BME280_pressure;Samples;Min_cycle;Max_cycle;Signal;HPM_P1;HPM_P2
2022/12/24 00:01:35;;;;;;;9.23;1.57;;;14.10;99.90;;;;;;5074926;28;20225;-60
2022/12/24 00:04:02;;;;;;;5.30;1.53;;;14.10;99.90;;;;;;5075002;28;20212;-60
2022/12/24 00:06:29;;;;;;;3.90;1.77;;;14.10;99.90;;;;;;5074183;28;20205;-61
2022/12/24 00:08:57;;;;;;;5.20;1.50;;;14.10;99.90;;;;;;5074705;28;20295;-60
2022/12/24 00:11:24;;;;;;;5.77;1.53;;;14.10;99.90;;;;;;5074398;28;20307;-60
2022/12/24 00:13:51;;;;;;;5.47;1.53;;;14.20;99.90;;;;;;5074833;28;20207;-60
2022/12/24 00:16:18;;;;;;;4.67;1.73;;;14.20;99.90;;;;;;5074747;28;20300;-60
2022/12/24 00:18:45;;;;;;;5.70;1.50;;;14.20;99.90;;;;;;5075506;28;20225;-60
2022/12/24 00:21:11;;;;;;;5.93;1.57;;;14.20;99.90;;;;;;5074548;28;20221;-60
2022/12/24 00:23:39;;;;;;;3.97;1.50;;;14.20;99.90;;;;;;5074669;28;20204;-60
2022/12/24 00:26:08;;;;;;;5.53;1.50;;;14.30;99.90;;;;;;5074763;28;20201;-60
2022/12/24 00:28:35;;;;;;;5.17;1.50;;;14.10;99.90;;;;;;5074600;28;20297;-60
2022/12/24 00:31:08;;;;;;;5.13;1.50;;;14.10;99.90;;;;;;5074064;28;20232;-60
2022/12/24 00:33:35;;;;;;;4.97;1.40;;;14.10;99.90;;;;;;5074915;28;20204;-60
2022/12/24 00:36:01;;;;;;;5.17;1.33;;;14.00;99.90;;;;;;5074482;28;20209;-60
2022/12/24 00:38:28;;;;;;;3.97;1.23;;;14.10;99.90;;;;;;5074464;28;20228;-60
2022/12/24 00:40:59;;;;;;;4.83;1.40;;;14.10;99.90;;;;;;5074378;28;20225;-59
2022/12/24 00:43:28;;;;;;;4.00;1.50;;;14.00;99.90;;;;;;5074655;28;20623;-60
2022/12/24 00:45:56;;;;;;;4.20;1.50;;;14.00;99.90;;;;;;5074512;28;20205;-60
2022/12/24 00:48:23;;;;;;;4.80;1.20;;;14.00;99.90;;;;;;5074039;28;20636;-60
2022/12/24 00:50:50;;;;;;;4.20;1.33;;;14.00;99.90;;;;;;5074059;28;20600;-60
2022/12/24 00:53:17;;;;;;;6.07;1.80;;;14.00;99.90;;;;;;5074216;28;20217;-60
2022/12/24 00:55:44;;;;;;;7.20;1.93;;;14.00;99.90;;;;;;5074268;28;20212;-60
2022/12/24 00:58:11;;;;;;;5.97;1.80;;;14.10;99.90;;;;;;5074032;28;20292;-59
2022/12/24 01:00:39;;;;;;;4.63;1.50;;;14.10;99.90;;;;;;5073825;28;20308;-59
2022/12/24 01:03:06;;;;;;;4.80;1.90;;;14.10;99.90;;;;;;5073533;28;20205;-59
2022/12/24 01:05:32;;;;;;;6.00;1.37;;;14.10;99.90;;;;;;5073869;28;20209;-59
2022/12/24 01:07:58;;;;;;;5.20;1.63;;;14.10;99.90;;;;;;5073570;28;20219;-59
2022/12/24 01:10:25;;;;;;;3.60;1.40;;;14.20;99.90;;;;;;5073227;28;20225;-60
2022/12/24 01:12:52;;;;;;;6.80;1.70;;;14.20;99.90;;;;;;5073363;28;20300;-60
2022/12/24 01:15:19;;;;;;;3.67;1.43;;;14.20;99.90;;;;;;5073456;28;20718;-59
2022/12/24 01:17:47;;;;;;;3.90;1.60;;;14.20;99.90;;;;;;5073277;28;20204;-59
2022/12/24 01:20:16;;;;;;;5.07;1.50;;;14.10;99.90;;;;;;5073136;28;20607;-59
2022/12/24 01:22:43;;;;;;;5.40;1.73;;;14.20;99.90;;;;;;5073352;28;20201;-60
2022/12/24 01:25:10;;;;;;;4.43;1.40;;;14.20;99.90;;;;;;5073286;28;20204;-59
2022/12/24 01:27:37;;;;;;;5.73;1.60;;;14.20;99.90;;;;;;5073453;28;20205;-59
2022/12/24 01:30:05;;;;;;;5.73;1.70;;;14.20;99.90;;;;;;5072550;28;20293;-59
2022/12/24 01:32:32;;;;;;;10.47;1.80;;;14.20;99.90;;;;;;5073798;28;20200;-59
2022/12/24 01:35:00;;;;;;;9.00;1.73;;;14.20;99.90;;;;;;5073074;28;20204;-59
2022/12/24 01:37:27;;;;;;;3.97;1.40;;;14.10;99.90;;;;;;5073100;28;20215;-59
2022/12/24 01:43:22;;;;;;;4.50;1.70;;;14.10;99.90;;;;;;5072771;28;20260;-59
2022/12/24 01:45:43;;;;;;;5.20;1.80;;;13.80;99.90;;;;;;5072895;28;20686;-59
2022/12/24 01:48:17;;;;;;;4.13;1.47;;;13.80;99.90;;;;;;5072712;28;20724;-59
2022/12/24 01:50:46;;;;;;;3.83;1.50;;;13.70;99.90;;;;;;5072771;28;20702;-59
2022/12/24 01:53:15;;;;;;;6.70;1.53;;;13.70;99.90;;;;;;5073130;28;20205;-59
2022/12/24 01:55:44;;;;;;;7.10;2.20;;;13.60;99.90;;;;;;5072890;28;20205;-59
2022/12/24 01:58:13;;;;;;;7.17;2.33;;;13.50;99.90;;;;;;5072754;28;20274;-59
2022/12/24 02:00:40;;;;;;;6.57;1.63;;;13.50;99.90;;;;;;5072629;28;20315;-59
2022/12/24 02:03:07;;;;;;;7.47;2.13;;;13.40;99.90;;;;;;5072847;28;20205;-59
2022/12/24 02:05:42;;;;;;;8.33;1.90;;;13.40;99.90;;;;;;5072766;28;20295;-59
2022/12/24 02:08:10;;;;;;;6.53;1.90;;;13.40;99.90;;;;;;5073171;28;20299;-59
2022/12/24 02:10:37;;;;;;;6.80;1.77;;;13.30;99.90;;;;;;5072617;28;20216;-59
2022/12/24 02:13:05;;;;;;;6.60;2.07;;;13.30;99.90;;;;;;5072573;28;20232;-59
2022/12/24 02:15:39;;;;;;;5.43;1.80;;;13.20;99.90;;;;;;5072788;28;20215;-59
2022/12/24 02:18:14;;;;;;;36.30;31.83;;;13.20;99.90;;;;;;5072678;28;20208;-59
2022/12/24 02:21:18;;;;;;;9.63;4.67;;;13.10;99.90;;;;;;5072262;28;20614;-59
2022/12/24 02:24:09;;;;;;;11.00;2.30;;;13.10;99.90;;;;;;5025224;28;20295;-59
2022/12/24 02:26:51;;;;;;;7.87;2.17;;;13.10;99.90;;;;;;5072827;28;20205;-59
2022/12/24 02:29:33;;;;;;;9.63;2.00;;;13.00;99.90;;;;;;5072402;28;20592;-59
2022/12/24 02:32:05;;;;;;;11.80;2.27;;;13.00;99.90;;;;;;5072621;28;20294;-59
2022/12/24 02:34:36;;;;;;;8.77;2.03;;;13.00;99.90;;;;;;5072440;28;20219;-58
2022/12/24 02:37:06;;;;;;;9.13;2.00;;;13.00;99.90;;;;;;5073057;28;20216;-58
2022/12/24 02:39:39;;;;;;;5.43;1.90;;;13.00;99.90;;;;;;5072373;28;20256;-58
2022/12/24 02:42:07;;;;;;;9.20;2.37;;;13.00;99.90;;;;;;5072013;28;20236;-58
2022/12/24 02:44:39;;;;;;;8.13;2.13;;;12.90;99.90;;;;;;5071996;28;20588;-58
2022/12/24 02:47:09;;;;;;;8.93;2.30;;;13.00;99.90;;;;;;5072301;28;20280;-58
2022/12/24 02:49:36;;;;;;;8.63;2.00;;;13.00;99.90;;;;;;5072662;28;20201;-58
2022/12/24 02:52:04;;;;;;;6.73;1.90;;;13.00;99.90;;;;;;5071923;28;20723;-58
2022/12/24 02:54:31;;;;;;;9.03;1.90;;;12.90;99.90;;;;;;5072076;28;20291;-58
2022/12/24 02:57:12;;;;;;;11.43;2.80;;;12.90;99.90;;;;;;5072001;28;20212;-58
2022/12/24 02:59:57;;;;;;;8.03;2.00;;;12.90;99.90;;;;;;5072208;28;20228;-59
2022/12/24 03:02:36;;;;;;;9.37;2.17;;;12.80;99.90;;;;;;5072270;28;20266;-59
2022/12/24 03:05:12;;;;;;;8.97;2.33;;;12.70;99.90;;;;;;5071984;28;20201;-59
2022/12/24 03:08:01;;;;;;;10.10;2.10;;;12.70;99.90;;;;;;5072162;28;20222;-58
2022/12/24 03:10:34;;;;;;;8.97;2.00;;;12.60;99.90;;;;;;5071915;28;20225;-59
2022/12/24 03:13:05;;;;;;;8.50;2.20;;;12.50;99.90;;;;;;5072208;28;20583;-58
2022/12/24 03:15:33;;;;;;;7.27;2.07;;;12.40;99.90;;;;;;5072303;28;20681;-59
2022/12/24 03:18:03;;;;;;;7.20;2.10;;;12.40;99.90;;;;;;5072134;28;20732;-59
2022/12/24 03:20:34;;;;;;;10.37;2.27;;;12.30;99.90;;;;;;5072040;28;20284;-58
2022/12/24 03:23:02;;;;;;;7.87;2.13;;;12.40;99.90;;;;;;5072459;28;20483;-59
2022/12/24 03:25:29;;;;;;;5.80;1.60;;;12.40;99.90;;;;;;5072480;28;20201;-59
2022/12/24 03:27:57;;;;;;;7.23;1.97;;;12.40;99.90;;;;;;5072087;28;20683;-59
2022/12/24 03:30:25;;;;;;;9.77;2.70;;;12.40;99.90;;;;;;5071891;28;20290;-59
2022/12/24 03:32:52;;;;;;;8.63;2.43;;;12.40;99.90;;;;;;5072419;28;20220;-59
2022/12/24 03:35:21;;;;;;;6.63;1.87;;;12.50;99.90;;;;;;5071990;28;20692;-59
2022/12/24 03:37:48;;;;;;;6.73;1.90;;;12.60;99.90;;;;;;5071767;28;20691;-58
2022/12/24 03:40:15;;;;;;;9.80;2.70;;;12.60;99.90;;;;;;5071625;28;20229;-58
2022/12/24 03:42:42;;;;;;;8.07;2.00;;;12.60;99.90;;;;;;5074617;28;20221;-61
2022/12/24 03:45:09;;;;;;;8.73;2.03;;;12.50;99.90;;;;;;5075636;28;20205;-58
2022/12/24 03:47:36;;;;;;;9.57;2.17;;;12.50;99.90;;;;;;5075554;28;20205;-59
2022/12/24 03:50:04;;;;;;;8.80;1.97;;;12.50;99.90;;;;;;5074774;28;20614;-59
2022/12/24 03:52:32;;;;;;;7.97;1.97;;;12.40;99.90;;;;;;5075320;28;20665;-59
2022/12/24 03:54:59;;;;;;;10.97;2.07;;;12.30;99.90;;;;;;5075125;28;20205;-59
2022/12/24 03:57:26;;;;;;;6.83;2.20;;;12.30;99.90;;;;;;5075083;28;20239;-59
2022/12/24 03:59:53;;;;;;;6.83;1.83;;;12.40;99.90;;;;;;5075515;28;20228;-59
2022/12/24 04:02:20;;;;;;;10.43;2.40;;;12.40;99.90;;;;;;5075622;28;20290;-59
2022/12/24 04:04:47;;;;;;;9.13;2.13;;;12.40;99.90;;;;;;5075681;28;20292;-58
2022/12/24 04:07:13;;;;;;;6.50;2.00;;;12.40;99.90;;;;;;5075921;28;20201;-59
2022/12/24 04:09:42;;;;;;;7.17;2.00;;;12.30;99.90;;;;;;5075737;28;20207;-58
2022/12/24 04:12:09;;;;;;;11.13;2.37;;;12.30;99.90;;;;;;5075879;28;20229;-59
2022/12/24 04:14:35;;;;;;;6.60;2.10;;;12.30;99.90;;;;;;5076160;28;20215;-58
2022/12/24 04:17:02;;;;;;;7.93;1.97;;;12.40;99.90;;;;;;5076746;28;20208;-61
2022/12/24 04:19:29;;;;;;;9.90;1.70;;;12.40;99.90;;;;;;5076784;28;20220;-59
2022/12/24 04:21:56;;;;;;;7.37;2.30;;;12.50;99.90;;;;;;5075773;28;20251;-59
2022/12/24 04:24:23;;;;;;;10.83;2.50;;;12.60;99.90;;;;;;5077178;28;20237;-61
2022/12/24 04:26:51;;;;;;;8.33;2.67;;;12.60;99.90;;;;;;5076997;28;20209;-58
2022/12/24 04:29:18;;;;;;;7.47;2.33;;;12.60;99.90;;;;;;5076999;28;20201;-59
2022/12/24 04:31:45;;;;;;;8.40;2.00;;;12.60;99.90;;;;;;5077976;28;20275;-59
2022/12/24 04:34:12;;;;;;;8.33;2.10;;;12.60;99.90;;;;;;5077662;28;20205;-59
2022/12/24 04:36:39;;;;;;;7.13;2.13;;;12.60;99.90;;;;;;5077948;28;20205;-59
2022/12/24 04:39:05;;;;;;;4.53;1.93;;;12.70;99.90;;;;;;5077364;28;20255;-59
2022/12/24 04:41:32;;;;;;;6.37;2.07;;;12.70;99.90;;;;;;5077468;28;20315;-59
2022/12/24 04:44:01;;;;;;;8.53;2.77;;;12.70;99.90;;;;;;5077022;28;20280;-59
2022/12/24 04:46:30;;;;;;;10.30;2.20;;;12.70;99.90;;;;;;5077259;28;20212;-59
2022/12/24 04:48:58;;;;;;;10.60;2.30;;;12.70;99.90;;;;;;5077171;28;20220;-61
2022/12/24 04:51:26;;;;;;;12.40;2.30;;;12.80;99.90;;;;;;5076610;28;20221;-60
2022/12/24 04:53:53;;;;;;;7.90;2.50;;;12.80;99.90;;;;;;5076876;28;20291;-60
2022/12/24 04:56:22;;;;;;;7.43;2.40;;;12.80;99.90;;;;;;5076716;28;20208;-59
2022/12/24 04:58:50;;;;;;;7.40;1.77;;;12.80;99.90;;;;;;5076783;28;20205;-59
2022/12/24 05:01:21;;;;;;;8.40;2.60;;;12.60;99.90;;;;;;5076001;28;20646;-59
2022/12/24 05:03:49;;;;;;;9.73;2.20;;;12.50;99.90;;;;;;5075957;28;20217;-59
2022/12/24 05:06:18;;;;;;;8.87;1.93;;;12.30;99.90;;;;;;5076247;28;20213;-59
2022/12/24 05:08:45;;;;;;;8.90;1.80;;;12.40;99.90;;;;;;5076033;28;20208;-59
2022/12/24 05:11:14;;;;;;;9.37;2.03;;;12.40;99.90;;;;;;5075632;28;20224;-59
2022/12/24 05:13:42;;;;;;;8.37;2.50;;;12.30;99.90;;;;;;5075505;28;20732;-58
2022/12/24 05:16:10;;;;;;;9.73;2.40;;;12.20;99.90;;;;;;5075094;28;20201;-59
2022/12/24 05:18:39;;;;;;;7.03;1.90;;;12.20;99.90;;;;;;5074523;28;20208;-59
2022/12/24 05:21:09;;;;;;;9.63;2.63;;;12.30;99.90;;;;;;5074551;28;20228;-59
2022/12/24 05:26:28;;;;;;;7.00;1.97;;;12.50;99.90;;;;;;5074451;28;20200;-60
2022/12/24 05:28:56;;;;;;;11.33;2.60;;;12.50;99.90;;;;;;5074206;28;20205;-60
2022/12/24 05:31:24;;;;;;;8.57;2.40;;;12.40;99.90;;;;;;5073922;28;20241;-59
2022/12/24 05:33:53;;;;;;;7.90;2.60;;;12.40;99.90;;;;;;5074552;28;20205;-59
2022/12/24 05:36:20;;;;;;;10.63;2.30;;;12.40;99.90;;;;;;5074148;28;20201;-59
2022/12/24 05:38:47;;;;;;;6.20;1.90;;;12.40;99.90;;;;;;5074268;28;20205;-59
2022/12/24 05:41:14;;;;;;;8.13;2.33;;;12.40;99.90;;;;;;5073439;28;20232;-59
2022/12/24 05:43:41;;;;;;;5.63;2.17;;;12.40;99.90;;;;;;5073336;28;20300;-58
2022/12/24 05:46:10;;;;;;;9.40;2.17;;;12.40;99.90;;;;;;5073466;28;20234;-59
2022/12/24 05:48:38;;;;;;;7.23;2.23;;;12.30;99.90;;;;;;5073449;28;20209;-59
2022/12/24 05:51:08;;;;;;;8.87;2.07;;;12.30;99.90;;;;;;5072921;28;20221;-59
2022/12/24 05:53:36;;;;;;;10.80;2.83;;;12.30;99.90;;;;;;5073069;28;20291;-59
2022/12/24 05:56:04;;;;;;;8.17;2.17;;;12.30;99.90;;;;;;5073137;28;20216;-59
2022/12/24 05:58:31;;;;;;;8.67;2.37;;;12.20;99.90;;;;;;5073724;28;20270;-60
2022/12/24 06:00:58;;;;;;;9.07;2.40;;;12.10;99.90;;;;;;5073166;28;20697;-59
2022/12/24 06:03:25;;;;;;;7.10;2.57;;;12.10;99.90;;;;;;5073314;28;20238;-59
2022/12/24 06:05:59;;;;;;;7.80;2.60;;;12.00;99.90;;;;;;5072814;28;20231;-59
2022/12/24 06:08:28;;;;;;;6.30;2.13;;;11.90;99.90;;;;;;5073345;28;20377;-60
2022/12/24 06:10:56;;;;;;;12.80;2.40;;;11.90;99.90;;;;;;5073083;28;20772;-60
2022/12/24 06:13:24;;;;;;;7.47;1.90;;;11.80;99.90;;;;;;5073537;28;20213;-60
2022/12/24 06:15:51;;;;;;;6.50;2.20;;;11.70;99.90;;;;;;5072833;28;20252;-60
2022/12/24 06:18:17;;;;;;;10.60;2.77;;;11.70;99.90;;;;;;5073269;28;20693;-60
2022/12/24 06:20:44;;;;;;;8.63;1.80;;;11.70;99.90;;;;;;5073188;28;20235;-59
2022/12/24 06:23:11;;;;;;;10.10;2.23;;;11.60;99.90;;;;;;5072566;28;20327;-60
2022/12/24 06:25:39;;;;;;;7.47;2.60;;;11.50;99.90;;;;;;5072312;28;20295;-59
2022/12/24 06:28:06;;;;;;;9.23;2.43;;;11.50;99.90;;;;;;5072185;28;20563;-60
2022/12/24 06:30:33;;;;;;;8.73;2.07;;;11.50;99.90;;;;;;5071981;28;20294;-59
2022/12/24 06:33:00;;;;;;;9.43;2.60;;;11.50;99.90;;;;;;5072542;28;20212;-60
2022/12/24 06:35:26;;;;;;;7.67;2.10;;;11.40;99.90;;;;;;5072221;28;20577;-60
2022/12/24 06:37:53;;;;;;;8.17;2.03;;;11.40;99.90;;;;;;5071946;28;20209;-59
2022/12/24 06:40:20;;;;;;;8.10;1.93;;;11.30;99.90;;;;;;5071813;28;20255;-60
2022/12/24 06:42:48;;;;;;;9.70;2.50;;;11.30;99.90;;;;;;5072090;28;20694;-59
2022/12/24 06:45:15;;;;;;;7.80;2.53;;;11.20;99.90;;;;;;5072357;28;20209;-59
2022/12/24 06:47:41;;;;;;;6.83;2.20;;;11.10;99.90;;;;;;5071951;28;20683;-60
2022/12/24 06:50:09;;;;;;;10.47;2.17;;;11.20;99.90;;;;;;5071787;28;20196;-60
2022/12/24 06:52:35;;;;;;;9.23;2.40;;;11.20;99.90;;;;;;5072083;28;20204;-59
2022/12/24 06:55:02;;;;;;;10.37;2.50;;;11.20;99.90;;;;;;5072233;28;20213;-59
2022/12/24 06:57:30;;;;;;;10.37;2.27;;;11.30;99.90;;;;;;5072510;28;20209;-60
2022/12/24 06:59:58;;;;;;;7.57;2.17;;;11.30;99.90;;;;;;5071861;28;20255;-59
2022/12/24 07:02:25;;;;;;;7.73;1.90;;;11.30;99.90;;;;;;5071822;28;20681;-59
2022/12/24 07:04:52;;;;;;;11.17;4.13;;;11.30;99.90;;;;;;5071857;28;20204;-59
2022/12/24 07:07:19;;;;;;;10.20;3.20;;;11.40;99.90;;;;;;5072157;28;20833;-61
2022/12/24 07:09:45;;;;;;;14.40;2.87;;;11.40;99.90;;;;;;5071996;28;20205;-59
2022/12/24 07:12:12;;;;;;;8.17;2.33;;;11.50;99.90;;;;;;5071512;28;20228;-60
2022/12/24 07:14:39;;;;;;;10.60;3.00;;;11.50;99.90;;;;;;5071909;28;20209;-60
2022/12/24 07:17:07;;;;;;;11.87;2.50;;;11.60;99.90;;;;;;5074868;28;20205;-59
2022/12/24 07:19:34;;;;;;;8.37;2.17;;;11.60;99.90;;;;;;5075853;28;20256;-60
2022/12/24 07:22:00;;;;;;;9.73;2.50;;;11.60;99.90;;;;;;5075091;28;20278;-60
2022/12/24 07:24:27;;;;;;;8.13;2.13;;;11.70;99.90;;;;;;5075519;28;20341;-60
2022/12/24 07:26:54;;;;;;;7.97;2.33;;;11.80;99.90;;;;;;5075398;28;20205;-59
2022/12/24 07:29:21;;;;;;;7.30;2.37;;;11.80;99.90;;;;;;5076349;28;20205;-60
2022/12/24 07:31:48;;;;;;;9.20;2.30;;;11.90;99.90;;;;;;5075602;28;20224;-59
2022/12/24 07:34:16;;;;;;;4.23;1.80;;;11.90;99.90;;;;;;5075836;28;20236;-59
2022/12/24 07:36:43;;;;;;;7.93;2.20;;;12.00;99.90;;;;;;5075371;28;20209;-59
2022/12/24 07:39:10;;;;;;;10.33;2.33;;;12.10;99.90;;;;;;5075372;28;20205;-58
2022/12/24 07:41:36;;;;;;;8.77;2.00;;;12.10;99.90;;;;;;5074710;28;20315;-59
2022/12/24 07:44:03;;;;;;;7.30;2.90;;;12.10;99.90;;;;;;5074833;28;20688;-59
2022/12/24 07:46:30;;;;;;;9.57;2.40;;;12.10;99.90;;;;;;5074968;28;20209;-60
2022/12/24 07:48:57;;;;;;;12.07;3.00;;;12.20;99.90;;;;;;5075063;28;20232;-60
2022/12/24 07:51:25;;;;;;;8.60;2.70;;;12.20;99.90;;;;;;5074694;28;20307;-59
2022/12/24 07:53:52;;;;;;;6.63;1.93;;;12.30;99.90;;;;;;5074998;28;20604;-59
2022/12/24 07:56:19;;;;;;;4.47;1.87;;;12.40;99.90;;;;;;5074742;28;20204;-59
2022/12/24 07:58:45;;;;;;;6.27;1.77;;;12.50;99.90;;;;;;5074914;28;20685;-59
2022/12/24 08:01:12;;;;;;;9.30;2.23;;;12.50;99.90;;;;;;5074359;28;20744;-59
2022/12/24 08:03:39;;;;;;;5.43;2.27;;;12.50;99.90;;;;;;5074892;28;20209;-59
2022/12/24 08:06:06;;;;;;;8.70;2.47;;;12.60;99.90;;;;;;5074647;28;20205;-59
2022/12/24 08:08:34;;;;;;;8.13;2.20;;;12.50;99.90;;;;;;5074611;28;20205;-60
2022/12/24 08:11:02;;;;;;;6.70;2.60;;;12.40;99.90;;;;;;5074116;28;20225;-60
2022/12/24 08:13:29;;;;;;;7.13;2.27;;;12.40;99.90;;;;;;5074318;28;20205;-60
2022/12/24 08:15:56;;;;;;;8.47;2.00;;;12.40;99.90;;;;;;5074611;28;20288;-59
2022/12/24 08:18:23;;;;;;;6.90;2.00;;;12.40;99.90;;;;;;5074485;28;20212;-60
2022/12/24 08:20:51;;;;;;;10.03;2.13;;;12.30;99.90;;;;;;5074315;28;20699;-59
2022/12/24 08:23:17;;;;;;;7.20;2.43;;;12.40;99.90;;;;;;5074463;28;20214;-59
2022/12/24 08:25:47;;;;;;;7.43;2.00;;;12.40;99.90;;;;;;5074276;28;20208;-59
2022/12/24 08:28:17;;;;;;;7.47;2.13;;;12.40;99.90;;;;;;5073489;28;20209;-59
2022/12/24 08:30:45;;;;;;;8.43;2.23;;;12.50;99.90;;;;;;5074048;28;20320;-60
2022/12/24 08:33:12;;;;;;;13.37;3.03;;;12.50;99.90;;;;;;5074122;28;20659;-59
2022/12/24 08:35:39;;;;;;;8.47;2.67;;;12.40;99.90;;;;;;5074266;28;20300;-59
2022/12/24 08:38:06;;;;;;;7.93;2.90;;;12.60;99.90;;;;;;5074138;28;20212;-59
2022/12/24 08:40:33;;;;;;;6.80;2.40;;;12.80;99.90;;;;;;5073740;28;20263;-59
2022/12/24 08:43:02;;;;;;;7.40;2.70;;;12.90;99.90;;;;;;5073791;28;20215;-59
2022/12/24 08:45:29;;;;;;;8.77;2.20;;;13.00;99.90;;;;;;5074254;28;20215;-59
2022/12/24 08:47:58;;;;;;;7.43;2.00;;;13.10;99.90;;;;;;5073924;28;20771;-60
2022/12/24 08:50:27;;;;;;;5.83;1.87;;;13.10;99.90;;;;;;5073435;28;20225;-59
2022/12/24 08:52:54;;;;;;;11.13;2.60;;;13.10;99.90;;;;;;5073631;28;20209;-59
2022/12/24 08:55:20;;;;;;;8.97;2.40;;;13.00;99.90;;;;;;5073534;28;20287;-59
2022/12/24 08:57:47;;;;;;;6.27;2.10;;;12.90;99.90;;;;;;5073833;28;20205;-60
2022/12/24 09:00:16;;;;;;;6.40;2.07;;;12.80;99.90;;;;;;5073885;28;20736;-60
2022/12/24 09:02:43;;;;;;;5.73;1.97;;;12.70;99.90;;;;;;5073360;28;20229;-64
2022/12/24 09:05:10;;;;;;;7.50;2.03;;;12.60;99.90;;;;;;5073825;28;20228;-59
2022/12/24 09:07:37;;;;;;;6.67;2.03;;;12.60;99.90;;;;;;5073630;28;20208;-59
2022/12/24 09:10:05;;;;;;;6.73;1.93;;;12.60;99.90;;;;;;5073389;28;20205;-58
2022/12/24 09:12:31;;;;;;;5.77;2.20;;;12.60;99.90;;;;;;5073430;28;20204;-59
2022/12/24 09:14:58;;;;;;;10.97;3.90;;;12.70;99.90;;;;;;5073443;28;20204;-59
2022/12/24 09:17:26;;;;;;;6.97;2.30;;;12.90;99.90;;;;;;5073334;28;20299;-59
2022/12/24 09:19:53;;;;;;;7.90;2.20;;;12.90;99.90;;;;;;5073158;28;20208;-58
2022/12/24 09:22:20;;;;;;;6.30;2.27;;;12.90;99.90;;;;;;5072660;28;20251;-58
2022/12/24 09:24:47;;;;;;;8.07;2.20;;;12.80;99.90;;;;;;5073139;28;20288;-59
2022/12/24 09:27:14;;;;;;;9.53;2.20;;;12.80;99.90;;;;;;5072900;28;20706;-58
2022/12/24 09:29:41;;;;;;;6.87;2.40;;;12.60;99.90;;;;;;5073005;28;20207;-58
2022/12/24 09:32:08;;;;;;;6.10;2.37;;;12.60;99.90;;;;;;5072356;28;20235;-58
2022/12/24 09:34:36;;;;;;;7.83;2.43;;;12.60;99.90;;;;;;5072575;28;20232;-59
2022/12/24 09:37:02;;;;;;;8.70;2.37;;;12.60;99.90;;;;;;5072494;28;20669;-59
2022/12/24 09:39:29;;;;;;;6.57;2.50;;;12.60;99.90;;;;;;5072219;28;20205;-59
2022/12/24 09:42:05;;;;;;;9.27;2.80;;;12.70;99.90;;;;;;5072919;28;20233;-58
2022/12/24 09:44:40;;;;;;;7.10;2.07;;;12.80;99.90;;;;;;5074129;28;20567;-58
2022/12/24 09:47:16;;;;;;;11.03;2.50;;;12.90;99.90;;;;;;5072966;28;20208;-59
2022/12/24 09:49:49;;;;;;;8.43;2.67;;;13.10;99.90;;;;;;5073248;28;20212;-59
2022/12/24 09:52:32;;;;;;;7.73;2.37;;;13.20;99.90;;;;;;5072992;28;20231;-60
2022/12/24 09:55:06;;;;;;;6.70;2.20;;;13.30;99.90;;;;;;5073383;28;20197;-59
2022/12/24 09:57:37;;;;;;;9.53;2.10;;;13.30;99.90;;;;;;5073127;28;20201;-59
2022/12/24 10:00:05;;;;;;;7.13;2.23;;;13.30;99.90;;;;;;5073224;28;20208;-59
2022/12/24 10:02:32;;;;;;;6.63;2.33;;;13.30;99.90;;;;;;5072945;28;20224;-59
2022/12/24 10:05:00;;;;;;;9.87;2.83;;;13.40;99.90;;;;;;5072865;28;20205;-60
2022/12/24 10:07:39;;;;;;;6.53;2.23;;;13.40;99.90;;;;;;5073385;28;20209;-59
2022/12/24 10:10:16;;;;;;;8.60;2.50;;;13.40;99.90;;;;;;5072648;28;20208;-59
2022/12/24 10:12:51;;;;;;;8.93;3.03;;;13.50;99.90;;;;;;5073076;28;20215;-59
2022/12/24 10:15:23;;;;;;;9.17;2.60;;;13.60;99.90;;;;;;5072970;28;20638;-59
2022/12/24 10:18:02;;;;;;;7.53;2.43;;;13.60;99.90;;;;;;5072916;28;20227;-59
2022/12/24 10:20:45;;;;;;;5.67;2.23;;;13.70;99.90;;;;;;5072498;28;20238;-59
2022/12/24 10:23:19;;;;;;;10.17;2.60;;;13.80;99.90;;;;;;5072691;28;20235;-59
2022/12/24 10:25:51;;;;;;;9.37;2.80;;;13.80;99.90;;;;;;5072990;28;20209;-59
2022/12/24 10:28:21;;;;;;;6.40;2.40;;;14.10;99.90;;;;;;5073151;28;20215;-60
2022/12/24 10:30:53;;;;;;;8.20;2.67;;;14.40;99.90;;;;;;5073097;28;20807;-60
2022/12/24 10:33:26;;;;;;;8.33;2.67;;;14.70;99.90;;;;;;5073216;28;20189;-60
2022/12/24 10:35:58;;;;;;;7.80;2.30;;;15.00;99.90;;;;;;5073144;28;20216;-60
2022/12/24 10:38:25;;;;;;;10.23;2.70;;;15.20;99.90;;;;;;5073076;28;20212;-59
2022/12/24 10:40:54;;;;;;;7.53;2.30;;;15.30;99.90;;;;;;5072502;28;20228;-59
2022/12/24 10:43:22;;;;;;;42.07;27.60;;;15.40;99.90;;;;;;5072580;28;20224;-59
2022/12/24 10:45:53;;;;;;;10.67;2.73;;;15.50;99.90;;;;;;5072837;28;20205;-59
2022/12/24 10:48:25;;;;;;;7.60;2.37;;;15.60;99.90;;;;;;5072718;28;20201;-59
2022/12/24 10:50:59;;;;;;;8.30;2.50;;;15.60;99.90;;;;;;5073576;28;20229;-59
2022/12/24 10:53:34;;;;;;;8.10;2.27;;;15.60;99.90;;;;;;5076710;28;20249;-59
2022/12/24 10:56:03;;;;;;;12.83;2.40;;;15.60;99.90;;;;;;5076681;28;20205;-59
2022/12/24 10:58:31;;;;;;;8.33;2.27;;;15.60;99.90;;;;;;5076297;28;20205;-59
2022/12/24 11:00:58;;;;;;;6.73;2.70;;;15.50;99.90;;;;;;5076518;28;20232;-59
2022/12/24 11:03:31;;;;;;;9.23;2.53;;;15.50;99.90;;;;;;5076266;28;20728;-59
2022/12/24 11:06:09;;;;;;;9.20;2.57;;;15.40;99.90;;;;;;5076793;28;20241;-59
2022/12/24 11:08:36;;;;;;;9.00;2.38;;;15.40;99.90;;;;;;5076630;28;20704;-59
2022/12/24 11:11:05;;;;;;;6.93;2.37;;;15.40;99.90;;;;;;5076444;28;20229;-59
2022/12/24 11:13:34;;;;;;;7.70;2.50;;;15.40;99.90;;;;;;5076806;28;20211;-59
2022/12/24 11:16:05;;;;;;;10.38;2.42;;;15.40;99.90;;;;;;5076385;28;20883;-60
2022/12/24 11:18:34;;;;;;;10.63;2.67;;;15.40;99.90;;;;;;5076522;28;20665;-59
2022/12/24 11:21:03;;;;;;;9.50;2.63;;;15.40;99.90;;;;;;5076551;28;20308;-59
2022/12/24 11:23:30;;;;;;;10.47;3.10;;;15.50;99.90;;;;;;5077146;28;20224;-59
2022/12/24 11:25:58;;;;;;;7.57;2.27;;;15.50;99.90;;;;;;5076783;28;20212;-59
2022/12/24 11:28:27;;;;;;;9.23;2.87;;;15.60;99.90;;;;;;5076855;28;20228;-59
2022/12/24 11:31:00;;;;;;;8.73;2.58;;;15.80;99.90;;;;;;5076228;28;20260;-58
2022/12/24 11:33:27;;;;;;;12.32;2.47;;;15.90;99.90;;;;;;5076747;28;20231;-59
2022/12/24 11:35:58;;;;;;;10.00;2.88;;;16.00;99.90;;;;;;5076896;28;20207;-59
2022/12/24 11:38:27;;;;;;;7.63;2.38;;;15.90;99.90;;;;;;5076945;28;20205;-58
2022/12/24 11:41:07;;;;;;;9.68;2.58;;;15.90;99.90;;;;;;5076623;28;20227;-58
2022/12/24 11:43:45;;;;;;;9.07;2.63;;;15.90;99.90;;;;;;5077386;28;20255;-59
2022/12/24 11:46:36;;;;;;;7.67;2.83;;;15.80;99.90;;;;;;5076543;28;20219;-59
2022/12/24 11:49:16;;;;;;;9.97;3.30;;;15.70;99.90;;;;;;5076814;28;20208;-58
2022/12/24 11:52:12;;;;;;;12.13;4.63;;;15.60;99.90;;;;;;5076854;28;20236;-57
2022/12/24 11:54:48;;;;;;;6.60;2.37;;;15.50;99.90;;;;;;5074883;28;20300;-57
2022/12/24 11:57:19;;;;;;;7.53;2.63;;;15.40;99.90;;;;;;5077144;28;20224;-57
2022/12/24 11:59:49;;;;;;;10.50;2.77;;;15.20;99.90;;;;;;5077614;28;20498;-58
2022/12/24 12:02:22;;;;;;;8.23;2.70;;;15.00;99.90;;;;;;5074812;28;20233;-57
2022/12/24 12:04:53;;;;;;;8.93;2.95;;;14.80;99.90;;;;;;5076580;28;20292;-58
2022/12/24 12:07:24;;;;;;;7.77;2.83;;;14.70;99.90;;;;;;5076266;28;20299;-58
2022/12/24 12:09:58;;;;;;;7.73;2.90;;;14.50;99.90;;;;;;5077124;28;20673;-58
2022/12/24 12:12:28;;;;;;;9.13;3.07;;;14.20;99.90;;;;;;5076712;28;20225;-58
2022/12/24 12:15:00;;;;;;;10.30;2.90;;;14.10;99.90;;;;;;5076570;28;20648;-58
2022/12/24 12:17:32;;;;;;;9.87;3.00;;;14.10;99.90;;;;;;5076404;28;20196;-58
2022/12/24 12:20:04;;;;;;;14.10;3.00;;;13.90;99.90;;;;;;5076809;28;20216;-59
2022/12/24 12:22:38;;;;;;;15.13;3.37;;;13.70;99.90;;;;;;5076561;28;20242;-59
2022/12/24 12:25:19;;;;;;;7.07;2.50;;;13.60;99.90;;;;;;5076680;28;20235;-59
2022/12/24 12:27:50;;;;;;;14.37;3.60;;;13.40;99.90;;;;;;5076502;28;20684;-59
2022/12/24 12:30:20;;;;;;;12.23;2.93;;;13.20;99.90;;;;;;5076990;28;20271;-59
2022/12/24 12:32:52;;;;;;;12.80;2.97;;;13.10;99.90;;;;;;5076513;28;20205;-59
2022/12/24 12:35:24;;;;;;;15.60;4.87;;;13.20;99.90;;;;;;5076188;28;20216;-58
2022/12/24 12:37:57;;;;;;;10.90;2.87;;;13.10;99.90;;;;;;5075894;28;20233;-59
2022/12/24 12:40:35;;;;;;;12.30;2.70;;;13.10;99.90;;;;;;5075447;28;20583;-59
2022/12/24 12:43:12;;;;;;;10.60;3.00;;;13.00;99.90;;;;;;5076099;28;20228;-59
2022/12/24 12:45:50;;;;;;;12.87;3.40;;;12.90;99.90;;;;;;5075639;28;20212;-59
2022/12/24 12:48:32;;;;;;;12.03;3.50;;;12.90;99.90;;;;;;5075561;28;20771;-59
2022/12/24 12:51:04;;;;;;;11.10;3.40;;;12.90;99.90;;;;;;5075199;28;20224;-59
2022/12/24 12:53:41;;;;;;;12.20;3.50;;;12.80;99.90;;;;;;5075786;28;20207;-59
2022/12/24 12:56:20;;;;;;;12.57;3.20;;;12.80;99.90;;;;;;5075571;28;20200;-59
2022/12/24 12:58:52;;;;;;;11.57;3.53;;;13.00;99.90;;;;;;5075268;28;20208;-58
2022/12/24 13:01:22;;;;;;;13.87;3.90;;;13.20;99.90;;;;;;5074673;28;20696;-59
2022/12/24 13:04:09;;;;;;;16.77;5.40;;;13.40;99.90;;;;;;5075003;28;20233;-59